Time;durP1;ratioP1;P1;durP2;ratioP2;P2;SDS_P1;SDS_P2;PMS_P1;PMS_P2;Temp;Humidity;BMP_temperature;BMP_pressure;BME280_temperature;BME280_humidity;BME280_pressure;Samples;Min_cycle;Max_cycle;Signal;HPM_P1;HPM_P2
2023/05/05 00:03:34;;;;;;;3.30;3.00;;;;;;;17.16;58.57;99154.56;7482514;39;20335;31
2023/05/05 00:09:08;;;;;;;3.80;3.20;;;;;;;17.24;58.99;99148.09;7494604;38;20355;31
2023/05/05 00:14:44;;;;;;;3.60;3.30;;;;;;;17.19;58.56;99148.72;7491015;39;20301;31
2023/05/05 00:20:19;;;;;;;5.25;3.30;;;;;;;17.16;60.41;99143.66;7487270;38;20234;31
2023/05/05 00:25:52;;;;;;;5.50;3.40;;;;;;;17.16;59.57;99149.09;7398609;39;20342;31
2023/05/05 00:31:12;;;;;;;6.80;3.30;;;;;;;17.30;59.44;99139.87;7423523;39;20363;31
2023/05/05 00:36:44;;;;;;;5.53;3.27;;;;;;;17.26;59.86;99140.53;7401242;39;21363;31
2023/05/05 00:42:00;;;;;;;3.73;3.30;;;;;;;17.18;59.31;99149.75;7339772;39;20244;31
2023/05/05 00:47:35;;;;;;;4.60;4.20;;;;;;;17.06;60.82;99135.09;7350955;39;21283;31
2023/05/05 00:53:08;;;;;;;5.43;3.30;;;;;;;17.03;61.45;99139.06;7339672;39;21638;31
2023/05/05 00:58:43;;;;;;;4.40;3.20;;;;;;;17.11;61.45;99135.31;7180701;39;20346;31
2023/05/05 01:04:01;;;;;;;4.50;3.60;;;;;;;17.19;60.97;99139.69;7319441;39;21391;31
2023/05/05 01:09:40;;;;;;;3.50;3.20;;;;;;;17.22;62.17;99144.72;7330063;39;21232;31
2023/05/05 01:15:13;;;;;;;5.00;3.50;;;;;;;17.25;61.62;99147.84;7336209;39;21262;31
2023/05/05 01:20:46;;;;;;;4.20;2.80;;;;;;;17.31;62.14;99146.19;7326936;39;20265;31
2023/05/05 01:26:24;;;;;;;3.20;2.90;;;;;;;17.34;61.86;99148.47;7347218;39;20292;31
2023/05/05 01:31:56;;;;;;;6.63;3.43;;;;;;;17.38;62.15;99147.00;7338525;39;20242;31
2023/05/05 01:37:28;;;;;;;3.20;2.90;;;;;;;17.39;62.04;99145.94;7366633;39;21354;31
2023/05/05 01:43:03;;;;;;;3.80;3.10;;;;;;;17.33;62.60;99146.81;7404830;39;20234;31
2023/05/05 01:48:36;;;;;;;4.10;3.10;;;;;;;17.33;63.06;99155.81;7423386;39;21323;31
2023/05/05 01:54:08;;;;;;;4.00;3.30;;;;;;;17.35;62.82;99155.59;7430097;39;20235;31
2023/05/05 01:59:43;;;;;;;4.50;3.23;;;;;;;17.38;62.95;99152.44;7418639;39;20248;31
2023/05/05 02:05:18;;;;;;;4.35;3.50;;;;;;;17.40;63.72;99163.97;7403633;39;21257;31
2023/05/05 02:10:49;;;;;;;3.15;2.85;;;;;;;17.39;63.43;99165.03;7380158;39;21443;31
2023/05/05 02:16:24;;;;;;;3.90;3.20;;;;;;;17.37;63.70;99159.81;7411698;39;20452;31
2023/05/05 02:21:56;;;;;;;5.60;3.20;;;;;;;17.35;63.89;99164.63;7442715;39;21190;31
2023/05/05 02:27:31;;;;;;;6.30;3.20;;;;;;;17.36;64.84;99160.00;7422525;39;21240;31
2023/05/05 02:38:12;;;;;;;5.83;3.37;;;;;;;17.37;64.43;99172.59;7378036;39;21227;31
2023/05/05 02:43:44;;;;;;;3.80;3.35;;;;;;;17.29;64.98;99181.00;7416517;39;20340;31
2023/05/05 02:49:19;;;;;;;5.17;3.10;;;;;;;17.27;65.24;99174.91;7420450;39;20265;31
2023/05/05 02:54:52;;;;;;;8.60;3.60;;;;;;;17.30;65.12;99178.03;7447260;39;20341;31
2023/05/05 03:00:27;;;;;;;4.40;3.10;;;;;;;17.35;64.79;99177.41;7458146;38;21250;31
2023/05/05 03:06:02;;;;;;;3.90;3.40;;;;;;;17.30;64.98;99177.19;7407808;39;21259;31
2023/05/05 03:11:36;;;;;;;5.40;3.50;;;;;;;17.29;65.63;99178.25;7401294;39;20394;31
2023/05/05 03:17:08;;;;;;;4.50;2.80;;;;;;;17.28;65.81;99184.75;7430835;39;21397;31
2023/05/05 03:22:43;;;;;;;4.20;3.33;;;;;;;17.27;65.93;99177.63;7465194;38;20225;31
2023/05/05 03:28:15;;;;;;;3.90;2.90;;;;;;;17.22;65.95;99185.56;7490116;39;20237;31
2023/05/05 03:33:32;;;;;;;6.70;3.20;;;;;;;17.23;66.37;99179.09;7441921;39;20257;31
2023/05/05 03:44:10;;;;;;;3.77;3.03;;;;;;;17.10;67.13;99178.03;7440383;39;20243;31
2023/05/05 03:49:30;;;;;;;4.40;3.45;;;;;;;17.09;66.84;99172.78;7424878;39;21267;31
2023/05/05 04:00:11;;;;;;;4.50;3.30;;;;;;;17.10;66.08;99186.22;7379082;39;21367;31
2023/05/05 04:05:43;;;;;;;4.07;3.40;;;;;;;17.08;66.27;99195.63;7343400;39;21246;31
2023/05/05 04:11:02;;;;;;;4.30;3.90;;;;;;;17.08;66.58;99191.03;7362163;39;21224;31
2023/05/05 04:16:38;;;;;;;4.10;3.35;;;;;;;17.01;67.56;99194.78;7367294;39;20251;31
2023/05/05 04:21:56;;;;;;;5.23;3.70;;;;;;;16.99;67.21;99202.31;7426800;39;21224;31
2023/05/05 04:32:37;;;;;;;3.90;3.50;;;;;;;16.93;68.32;99195.00;7518059;38;20273;31
2023/05/05 04:38:12;;;;;;;5.40;3.50;;;;;;;17.02;66.88;99194.59;7492714;38;20237;31
2023/05/05 04:43:32;;;;;;;3.50;3.20;;;;;;;17.09;67.80;99200.03;7463596;39;20241;31
2023/05/05 04:49:05;;;;;;;5.00;3.30;;;;;;;17.06;67.76;99204.03;7464062;39;21263;31
2023/05/05 04:59:29;;;;;;;4.77;3.27;;;;;;;17.23;67.38;99207.16;7392023;39;20342;31
2023/05/05 05:10:10;;;;;;;4.10;2.90;;;;;;;17.38;68.23;99212.41;7450893;38;21155;31
2023/05/05 05:15:31;;;;;;;3.60;3.00;;;;;;;17.50;68.31;99224.37;7461801;39;21409;31
2023/05/05 05:26:08;;;;;;;3.37;2.97;;;;;;;17.59;68.02;99227.75;7462029;39;20370;31
2023/05/05 05:31:43;;;;;;;3.10;2.80;;;;;;;17.67;67.96;99239.25;7478244;38;20246;31
2023/05/05 05:37:01;;;;;;;4.10;2.75;;;;;;;17.72;67.69;99230.44;7462806;39;20239;31
2023/05/05 05:42:34;;;;;;;3.55;2.40;;;;;;;17.74;67.68;99236.53;7444837;39;20473;31
2023/05/05 05:48:06;;;;;;;8.85;5.80;;;;;;;17.76;67.37;99253.53;7377476;39;20377;31
2023/05/05 05:53:24;;;;;;;5.13;4.13;;;;;;;17.79;67.18;99273.00;7395014;39;21297;31
2023/05/05 05:58:55;;;;;;;4.60;2.90;;;;;;;17.73;67.63;99273.00;7421673;39;21245;31
2023/05/05 06:04:17;;;;;;;4.20;3.70;;;;;;;17.74;66.80;99277.41;7447966;38;20217;31
2023/05/05 06:09:35;;;;;;;6.60;3.80;;;;;;;17.81;67.41;99276.37;7440827;39;21195;31
2023/05/05 06:20:12;;;;;;;4.30;3.40;;;;;;;17.90;67.35;99277.00;7419626;39;20263;31
2023/05/05 06:25:44;;;;;;;5.23;3.83;;;;;;;17.95;66.85;99280.75;7432917;39;21319;31
2023/05/05 06:31:17;;;;;;;4.70;3.50;;;;;;;18.03;66.47;99285.97;7429592;39;20273;31
2023/05/05 06:36:50;;;;;;;4.30;3.10;;;;;;;18.05;66.65;99284.94;7379464;39;21293;31
2023/05/05 06:42:07;;;;;;;3.20;2.90;;;;;;;18.16;66.73;99289.75;7401440;39;21305;31
2023/05/05 06:47:43;;;;;;;4.77;3.10;;;;;;;18.25;66.48;99291.22;7444264;38;20255;31
2023/05/05 06:58:22;;;;;;;4.70;2.60;;;;;;;18.23;67.05;99287.84;7441471;39;20416;31
2023/05/05 07:03:54;;;;;;;3.20;2.60;;;;;;;18.21;67.43;99293.50;7381215;39;20332;31
2023/05/05 07:09:26;;;;;;;4.17;2.70;;;;;;;18.28;66.85;99301.69;7438890;39;21300;31
2023/05/05 07:15:00;;;;;;;3.35;2.85;;;;;;;18.39;66.93;99298.28;7397061;39;21317;31
2023/05/05 07:20:32;;;;;;;7.50;5.33;;;;;;;18.64;65.94;99296.56;7367234;39;20286;31
2023/05/05 07:26:07;;;;;;;5.73;4.40;;;;;;;18.96;66.34;99294.72;7379882;39;21199;31
2023/05/05 07:31:41;;;;;;;5.10;3.90;;;;;;;19.14;66.30;99294.00;7368912;39;21238;31
2023/05/05 07:37:13;;;;;;;5.37;4.23;;;;;;;19.40;64.89;99288.34;7400681;39;21347;31
2023/05/05 07:42:48;;;;;;;6.45;4.70;;;;;;;19.62;64.70;99295.16;7360871;39;21410;31
2023/05/05 07:53:25;;;;;;;7.43;4.20;;;;;;;20.05;64.04;99288.91;7415973;39;20368;31
2023/05/05 07:58:45;;;;;;;6.63;5.30;;;;;;;20.34;63.69;99293.69;7169038;39;20231;31
2023/05/05 08:04:16;;;;;;;7.23;4.30;;;;;;;20.53;62.66;99283.59;7342779;39;20317;31
2023/05/05 08:09:50;;;;;;;5.85;3.80;;;;;;;20.85;62.25;99285.06;7399703;39;20254;31
2023/05/05 08:15:22;;;;;;;8.20;5.70;;;;;;;20.90;61.34;99282.47;7359974;39;21322;31
2023/05/05 08:20:39;;;;;;;7.20;3.90;;;;;;;21.02;61.37;99280.59;7362391;39;21322;31
2023/05/05 08:26:14;;;;;;;16.20;11.00;;;;;;;21.15;61.06;99274.12;7442737;39;21246;31
2023/05/05 08:31:47;;;;;;;6.05;3.47;;;;;;;21.28;59.73;99267.66;7421867;39;20404;31
2023/05/05 08:37:19;;;;;;;4.00;3.15;;;;;;;21.48;59.56;99259.94;7436090;39;21375;31
2023/05/05 08:42:52;;;;;;;5.12;4.28;;;;;;;21.59;59.11;99261.84;7379796;39;20334;31
2023/05/05 08:48:24;;;;;;;5.07;3.60;;;;;;;21.71;58.77;99268.22;7423064;39;20250;31
2023/05/05 08:54:01;;;;;;;7.10;3.55;;;;;;;21.68;57.95;99265.06;7407630;39;21283;31
2023/05/05 08:59:37;;;;;;;3.90;3.35;;;;;;;21.80;58.67;99258.56;7414479;39;21445;31
2023/05/05 09:05:09;;;;;;;3.83;2.97;;;;;;;21.93;58.21;99266.59;7382907;39;20234;31
2023/05/05 09:10:41;;;;;;;3.00;2.70;;;;;;;21.84;58.95;99269.87;7398988;39;20448;31
2023/05/05 09:16:17;;;;;;;5.30;2.80;;;;;;;21.82;58.35;99270.13;7391362;39;20229;31
2023/05/05 09:21:50;;;;;;;4.73;2.40;;;;;;;22.04;56.82;99267.66;7356703;39;21243;31
2023/05/05 09:27:26;;;;;;;3.67;2.37;;;;;;;22.27;55.97;99267.66;7435756;39;20282;31
2023/05/05 09:33:01;;;;;;;3.35;2.75;;;;;;;22.36;56.48;99270.84;7403775;39;21211;31
2023/05/05 09:38:32;;;;;;;4.00;2.60;;;;;;;22.30;56.39;99264.41;7402020;39;21443;31
2023/05/05 09:44:04;;;;;;;54.70;39.80;;;;;;;22.38;56.17;99255.78;7318080;39;20544;31
2023/05/05 09:49:40;;;;;;;31.25;18.80;;;;;;;22.33;55.58;99257.62;7330141;39;21180;31
2023/05/05 09:54:57;;;;;;;303.10;219.60;;;;;;;22.30;55.80;99253.41;7349354;39;21206;31
2023/05/05 10:00:30;;;;;;;12.60;8.60;;;;;;;22.31;56.09;99246.03;7395640;39;21267;31
2023/05/05 10:06:01;;;;;;;7.80;5.10;;;;;;;22.41;55.74;99254.50;7423121;39;21358;31
2023/05/05 10:11:32;;;;;;;5.28;3.17;;;;;;;22.46;55.94;99249.94;7407132;39;20480;31
2023/05/05 10:17:05;;;;;;;3.47;2.90;;;;;;;22.59;55.57;99242.50;7444569;39;20234;31
2023/05/05 10:22:41;;;;;;;3.77;2.37;;;;;;;22.66;55.34;99238.53;7467553;39;20248;31
2023/05/05 10:28:16;;;;;;;2.67;2.20;;;;;;;22.65;55.07;99236.84;7462409;39;20266;31
2023/05/05 10:33:52;;;;;;;3.20;2.25;;;;;;;22.30;55.11;99234.19;7463399;39;21176;31
2023/05/05 10:39:25;;;;;;;6.10;2.00;;;;;;;22.20;55.92;99234.00;7377239;39;21420;31
2023/05/05 10:44:57;;;;;;;2.70;1.90;;;;;;;22.20;55.60;99231.25;7373533;39;21316;31
2023/05/05 10:50:30;;;;;;;4.50;2.40;;;;;;;22.15;55.77;99225.63;7376730;39;21345;31
2023/05/05 11:01:12;;;;;;;2.70;1.80;;;;;;;22.36;55.70;99208.53;7420005;39;20242;31
2023/05/05 11:06:32;;;;;;;11.00;2.43;;;;;;;22.29;54.44;99205.06;7412074;39;20314;31
2023/05/05 11:12:16;;;;;;;3.05;2.15;;;;;;;22.08;55.14;99197.47;7441138;39;21197;31
2023/05/05 11:23:07;;;;;;;5.00;2.00;;;;;;;21.94;55.10;99190.53;7436611;39;20646;31
2023/05/05 11:28:43;;;;;;;3.40;1.80;;;;;;;21.78;55.52;99177.53;7388852;39;21296;31
2023/05/05 11:34:39;;;;;;;2.40;1.65;;;;;;;21.73;55.69;99174.66;7401042;39;21334;31
2023/05/05 11:40:17;;;;;;;2.50;1.80;;;;;;;21.70;55.62;99175.16;7298798;39;20279;31
2023/05/05 11:45:52;;;;;;;3.40;1.87;;;;;;;21.74;54.98;99170.84;7331792;39;21378;31
2023/05/05 11:51:27;;;;;;;2.70;1.50;;;;;;;21.66;54.61;99172.06;7361086;39;21279;31
2023/05/05 12:02:09;;;;;;;5.55;1.60;;;;;;;21.53;55.00;99166.81;7356724;39;20259;31
2023/05/05 12:07:39;;;;;;;2.80;1.70;;;;;;;21.39;54.11;99168.94;7384285;39;20355;31
2023/05/05 12:12:59;;;;;;;3.78;1.60;;;;;;;21.41;53.32;99161.28;7457949;39;21114;31
2023/05/05 12:18:35;;;;;;;2.53;1.40;;;;;;;21.46;53.92;99160.56;7401009;39;21379;31
2023/05/05 12:23:55;;;;;;;3.50;1.58;;;;;;;21.67;54.37;99139.97;7418681;39;20238;31
2023/05/05 12:29:28;;;;;;;3.30;1.50;;;;;;;21.87;53.37;99141.25;7425665;39;21147;31
2023/05/05 12:35:02;;;;;;;3.75;1.80;;;;;;;22.33;52.14;99129.38;7399982;39;20863;31
2023/05/05 12:41:00;;;;;;;2.75;1.70;;;;;;;22.44;51.76;99120.22;7452292;38;20234;31
2023/05/05 12:46:36;;;;;;;2.65;1.55;;;;;;;22.59;51.51;99108.72;7509553;38;20298;31
2023/05/05 12:52:13;;;;;;;3.22;1.73;;;;;;;22.78;51.04;99103.84;7461461;39;20312;31
2023/05/05 12:57:31;;;;;;;4.70;1.70;;;;;;;22.90;50.79;99104.63;7440198;39;21283;31
2023/05/05 13:02:48;;;;;;;2.77;1.70;;;;;;;22.69;51.13;99099.78;7423226;39;20273;31
2023/05/05 13:08:21;;;;;;;3.33;1.77;;;;;;;22.38;51.78;99107.47;7387409;39;20379;31
2023/05/05 13:13:40;;;;;;;3.65;1.77;;;;;;;22.32;52.43;99115.88;7376178;39;21207;31
2023/05/05 13:19:12;;;;;;;2.20;1.90;;;;;;;22.13;53.39;99104.22;7400176;39;21332;31
2023/05/05 13:24:46;;;;;;;4.35;1.70;;;;;;;22.07;52.79;99093.41;7401932;39;20409;31
2023/05/05 13:30:19;;;;;;;4.32;1.87;;;;;;;22.05;53.08;99093.63;7443469;39;20290;31
2023/05/05 13:35:36;;;;;;;5.40;2.40;;;;;;;22.09;54.19;99088.47;7420520;39;20256;31
2023/05/05 13:41:12;;;;;;;3.58;2.05;;;;;;;22.07;53.33;99086.00;7449781;39;21175;31
2023/05/05 13:46:33;;;;;;;4.55;2.10;;;;;;;22.00;53.66;99083.38;7419957;39;21194;31
2023/05/05 13:51:54;;;;;;;3.42;1.65;;;;;;;21.97;54.82;99064.66;7424715;39;21142;31
2023/05/05 13:57:25;;;;;;;3.08;1.90;;;;;;;21.92;55.45;99058.19;7421631;39;21276;31
2023/05/05 14:02:57;;;;;;;2.42;1.90;;;;;;;21.97;54.56;99042.69;7466326;38;20276;31
2023/05/05 14:08:14;;;;;;;4.65;1.73;;;;;;;21.97;54.67;99044.59;7442004;39;21228;31
2023/05/05 14:13:51;;;;;;;3.05;1.70;;;;;;;21.91;54.07;99045.53;7443220;39;20234;31
2023/05/05 14:19:09;;;;;;;3.55;2.00;;;;;;;22.02;54.25;99044.72;7440466;39;21129;31
2023/05/05 14:24:26;;;;;;;3.75;1.90;;;;;;;22.00;54.52;99044.09;7420183;39;20365;31
2023/05/05 14:30:02;;;;;;;6.55;2.20;;;;;;;22.01;54.32;99024.66;7437590;39;20236;31
2023/05/05 14:35:20;;;;;;;6.10;1.93;;;;;;;22.14;54.57;99037.25;7422733;39;21271;31
2023/05/05 14:40:40;;;;;;;3.35;2.10;;;;;;;22.25;55.26;99035.50;7231548;39;20252;31
2023/05/05 14:46:13;;;;;;;4.30;1.85;;;;;;;22.25;54.01;99039.09;7416254;39;20459;31
2023/05/05 14:51:30;;;;;;;2.75;1.65;;;;;;;22.13;54.56;99049.31;7400331;39;20343;31
2023/05/05 14:57:03;;;;;;;2.70;1.60;;;;;;;22.12;53.39;99066.84;7378367;39;20306;31
2023/05/05 15:02:37;;;;;;;3.20;1.37;;;;;;;21.80;53.25;99074.69;7365315;39;21256;31
2023/05/05 15:13:17;;;;;;;2.65;1.40;;;;;;;21.34;57.78;99132.31;7463961;38;20261;31
2023/05/05 15:18:50;;;;;;;4.80;1.90;;;;;;;20.78;62.46;99130.06;7442462;39;21223;31
2023/05/05 15:24:07;;;;;;;3.45;1.70;;;;;;;20.36;63.87;99124.53;7379198;39;21415;31
2023/05/05 15:29:24;;;;;;;3.95;1.70;;;;;;;20.11;65.50;99124.63;7439255;39;20254;31
2023/05/05 15:34:57;;;;;;;3.05;1.75;;;;;;;19.88;66.96;99134.63;7401921;39;20300;31
2023/05/05 15:40:14;;;;;;;5.15;2.17;;;;;;;19.84;67.63;99145.16;7381790;39;20228;31
2023/05/05 15:45:34;;;;;;;5.40;1.67;;;;;;;19.78;67.67;99157.84;7437540;39;20376;31
2023/05/05 15:51:06;;;;;;;4.40;1.70;;;;;;;19.63;69.36;99153.78;7402901;39;20405;31
2023/05/05 16:01:44;;;;;;;2.10;1.40;;;;;;;19.30;71.57;99159.56;7450129;39;20265;31
2023/05/05 16:07:18;;;;;;;7.20;2.00;;;;;;;19.28;70.14;99158.94;7484810;38;20247;31
2023/05/05 16:17:39;;;;;;;3.20;1.70;;;;;;;19.39;68.74;99152.75;7399708;39;20354;31
2023/05/05 16:28:15;;;;;;;4.53;2.17;;;;;;;19.27;70.12;99138.97;7414486;39;20246;31
2023/05/05 16:33:34;;;;;;;5.07;2.03;;;;;;;19.26;69.46;99152.88;7358965;39;21298;31
2023/05/05 16:39:05;;;;;;;2.60;1.70;;;;;;;19.24;69.72;99153.09;7356308;39;20247;31
2023/05/05 16:44:38;;;;;;;4.17;1.87;;;;;;;19.26;69.78;99148.22;7378014;39;21292;31
2023/05/05 16:54:59;;;;;;;4.00;2.00;;;;;;;19.22;70.54;99141.53;7380596;39;20267;31
2023/05/05 17:00:33;;;;;;;4.67;2.13;;;;;;;19.21;70.87;99153.53;7402826;39;21210;31
2023/05/05 17:11:08;;;;;;;6.20;2.20;;;;;;;19.17;71.14;99146.00;7440578;38;20265;31
2023/05/05 17:16:41;;;;;;;2.80;1.70;;;;;;;19.09;72.55;99132.59;7483228;39;20258;31
2023/05/05 17:22:01;;;;;;;3.18;1.88;;;;;;;19.10;71.93;99132.37;7378298;39;20239;31
2023/05/05 17:27:34;;;;;;;3.90;2.00;;;;;;;19.15;71.28;99142.66;7396569;39;21260;31
2023/05/05 17:33:07;;;;;;;3.93;1.80;;;;;;;19.11;71.75;99135.97;7426884;39;20250;31
2023/05/05 17:38:27;;;;;;;4.30;1.90;;;;;;;19.11;71.50;99139.53;7379730;39;20293;31
2023/05/05 17:49:08;;;;;;;4.30;1.80;;;;;;;19.00;72.07;99140.22;7487384;38;20261;31
2023/05/05 17:54:41;;;;;;;4.10;1.70;;;;;;;19.01;71.04;99150.13;7441598;39;20262;31
2023/05/05 18:00:13;;;;;;;3.33;1.63;;;;;;;19.05;70.46;99145.03;7448459;39;21323;31
2023/05/05 18:05:42;;;;;;;4.53;2.10;;;;;;;18.95;72.24;99150.19;7420615;39;20316;31
2023/05/05 18:11:12;;;;;;;5.27;2.20;;;;;;;18.95;71.32;99172.03;7335020;39;20321;31
2023/05/05 18:16:32;;;;;;;2.90;2.40;;;;;;;18.85;71.83;99180.72;7360925;39;20291;31
2023/05/05 18:22:06;;;;;;;4.43;2.12;;;;;;;18.77;72.01;99181.81;7347785;39;21285;31
2023/05/05 18:27:42;;;;;;;5.37;2.53;;;;;;;18.51;75.27;99192.84;7372127;39;21285;31
2023/05/05 18:33:16;;;;;;;3.93;2.50;;;;;;;18.48;74.81;99198.72;7355483;39;21353;31
2023/05/05 18:38:47;;;;;;;4.43;2.50;;;;;;;18.49;75.36;99197.69;7349507;39;21294;31
2023/05/05 18:44:19;;;;;;;4.43;2.33;;;;;;;18.43;75.04;99204.84;7389191;39;21306;31
2023/05/05 18:49:40;;;;;;;4.15;2.20;;;;;;;18.48;75.11;99206.91;7400724;39;20259;31
2023/05/05 18:55:13;;;;;;;5.80;2.50;;;;;;;18.40;74.99;99205.28;7411956;39;21424;31
2023/05/05 19:05:53;;;;;;;4.14;2.42;;;;;;;18.17;76.04;99229.50;7494570;39;21125;31
2023/05/05 19:11:29;;;;;;;3.80;2.10;;;;;;;18.10;77.25;99238.75;7493257;38;20242;31
2023/05/05 19:16:50;;;;;;;3.80;2.20;;;;;;;18.02;77.02;99231.66;7490102;38;20237;31
2023/05/05 19:22:25;;;;;;;3.90;2.10;;;;;;;18.09;76.84;99231.63;7489717;38;20237;31
2023/05/05 19:27:58;;;;;;;5.43;2.60;;;;;;;18.13;77.14;99224.69;7421693;39;20242;31
2023/05/05 19:33:30;;;;;;;4.50;2.63;;;;;;;18.21;76.68;99224.47;7419214;39;21343;31
2023/05/05 19:44:07;;;;;;;4.00;2.70;;;;;;;18.23;76.52;99228.66;7420976;39;20276;31
2023/05/05 19:54:44;;;;;;;4.30;3.20;;;;;;;18.22;77.20;99234.31;7377854;39;20494;31
2023/05/05 20:05:22;;;;;;;6.50;2.50;;;;;;;18.07;77.31;99234.59;7412491;39;20254;31
2023/05/05 20:10:39;;;;;;;3.95;2.60;;;;;;;18.12;76.71;99234.78;7420646;39;20277;31
2023/05/05 20:16:12;;;;;;;6.05;2.80;;;;;;;18.04;77.33;99243.19;7465658;39;20388;31
2023/05/05 20:21:45;;;;;;;3.35;2.40;;;;;;;18.02;77.35;99253.47;7437608;39;20385;31
2023/05/05 20:27:21;;;;;;;3.90;2.60;;;;;;;18.00;77.18;99256.41;7426596;39;20516;31
2023/05/05 20:32:53;;;;;;;2.95;2.50;;;;;;;17.91;77.29;99254.13;7440326;39;20276;31
2023/05/05 20:38:26;;;;;;;3.40;2.50;;;;;;;17.86;78.11;99252.03;7443798;39;20374;31
2023/05/05 20:43:58;;;;;;;5.93;2.73;;;;;;;17.85;77.85;99257.69;7437233;38;21374;31
2023/05/05 20:49:15;;;;;;;3.17;2.47;;;;;;;17.83;77.71;99267.97;7424314;39;20281;31
2023/05/05 20:59:52;;;;;;;3.10;2.50;;;;;;;17.63;78.44;99273.44;7467755;38;20254;31
2023/05/05 21:05:27;;;;;;;2.72;2.40;;;;;;;17.68;78.15;99278.28;7513860;38;20368;31
2023/05/05 21:10:44;;;;;;;5.25;2.40;;;;;;;17.62;78.54;99273.66;7401077;39;21404;31
2023/05/05 21:16:19;;;;;;;3.27;2.53;;;;;;;17.54;79.34;99271.94;7422363;39;20305;31
2023/05/05 21:21:36;;;;;;;5.13;2.37;;;;;;;17.52;78.84;99279.47;7356951;39;20241;31
2023/05/05 21:27:11;;;;;;;5.15;2.85;;;;;;;17.52;79.03;99268.59;7334501;39;21291;31
2023/05/05 21:32:44;;;;;;;5.10;2.40;;;;;;;17.47;79.43;99271.09;7344172;39;20239;31
2023/05/05 21:38:01;;;;;;;4.00;2.70;;;;;;;17.39;79.21;99271.31;7344541;39;21233;31
2023/05/05 21:43:19;;;;;;;4.90;2.90;;;;;;;17.32;79.71;99273.19;7369819;39;21205;31
2023/05/05 21:48:53;;;;;;;4.33;2.90;;;;;;;17.21;79.79;99274.63;7381520;39;21349;31
2023/05/05 21:54:13;;;;;;;5.20;3.30;;;;;;;17.24;78.89;99278.84;7454675;39;20272;31
2023/05/05 22:04:53;;;;;;;6.20;3.05;;;;;;;17.15;78.25;99272.75;7415728;39;20286;31
2023/05/05 22:10:26;;;;;;;4.60;3.07;;;;;;;16.96;78.81;99274.38;7240238;39;20347;31
2023/05/05 22:15:42;;;;;;;4.60;2.90;;;;;;;16.92;78.57;99275.00;7446344;39;21304;31
2023/05/05 22:21:16;;;;;;;4.77;2.97;;;;;;;16.81;78.85;99275.56;7408984;39;21053;31
2023/05/05 22:26:52;;;;;;;5.40;3.20;;;;;;;16.64;78.34;99272.38;7424159;39;20279;31
2023/05/05 22:32:23;;;;;;;4.83;3.60;;;;;;;16.60;78.99;99282.84;7442333;39;20408;31
2023/05/05 22:37:56;;;;;;;4.50;3.15;;;;;;;16.66;78.56;99279.31;7420704;39;20312;31
2023/05/05 22:43:13;;;;;;;4.60;3.30;;;;;;;16.68;79.04;99285.37;7392386;39;20310;31
2023/05/05 22:48:48;;;;;;;8.13;3.13;;;;;;;16.66;79.22;99286.63;7401952;39;20331;31
2023/05/05 22:54:20;;;;;;;4.00;3.20;;;;;;;16.69;78.30;99280.78;7355052;39;21250;31
2023/05/05 22:59:40;;;;;;;3.60;3.30;;;;;;;16.68;78.49;99284.53;7364998;39;20323;31
2023/05/05 23:05:12;;;;;;;5.30;3.00;;;;;;;16.65;77.99;99274.91;7363398;39;20266;31
2023/05/05 23:10:48;;;;;;;5.15;3.40;;;;;;;16.63;77.81;99279.72;7403143;39;20335;31
2023/05/05 23:16:20;;;;;;;4.27;3.37;;;;;;;16.63;78.20;99276.13;7421969;39;20351;31
2023/05/05 23:21:37;;;;;;;4.40;3.65;;;;;;;16.64;78.23;99278.66;7423393;39;20384;31
2023/05/05 23:27:11;;;;;;;5.60;3.50;;;;;;;16.58;78.16;99284.94;7379699;39;21368;31
2023/05/05 23:32:43;;;;;;;4.35;3.05;;;;;;;16.54;78.11;99286.34;7386560;39;20224;31
2023/05/05 23:38:15;;;;;;;4.30;3.70;;;;;;;16.55;77.63;99287.19;7388093;39;21359;31
2023/05/05 23:43:48;;;;;;;6.00;3.80;;;;;;;16.48;77.86;99275.44;7403973;39;20227;31
2023/05/05 23:49:20;;;;;;;6.83;3.97;;;;;;;16.46;77.96;99282.94;7411339;39;20283;31
2023/05/05 23:54:37;;;;;;;4.60;3.50;;;;;;;16.46;77.56;99285.66;7423760;39;21324;31
